sensor_id;sensor_type;location;lat;lon;timestamp;P1;durP1;ratioP1;P2;durP2;ratioP2
25531;SDS011;13429;48.816;9.118;2022-07-10T00:00:16;7.30;;;5.68;;
25531;SDS011;13429;48.816;9.118;2022-07-10T00:02:42;7.97;;;4.88;;
25531;SDS011;13429;48.816;9.118;2022-07-10T00:05:09;6.05;;;5.45;;
25531;SDS011;13429;48.816;9.118;2022-07-10T00:07:36;6.50;;;4.60;;
25531;SDS011;13429;48.816;9.118;2022-07-10T00:10:05;6.35;;;4.72;;
25531;SDS011;13429;48.816;9.118;2022-07-10T00:12:31;7.88;;;5.20;;
25531;SDS011;13429;48.816;9.118;2022-07-10T00:14:57;7.25;;;5.40;;
25531;SDS011;13429;48.816;9.118;2022-07-10T00:17:24;8.90;;;5.10;;
25531;SDS011;13429;48.816;9.118;2022-07-10T00:19:50;5.90;;;4.70;;
25531;SDS011;13429;48.816;9.118;2022-07-10T00:22:16;5.78;;;5.13;;
25531;SDS011;13429;48.816;9.118;2022-07-10T00:24:42;6.97;;;5.68;;
25531;SDS011;13429;48.816;9.118;2022-07-10T00:27:09;5.70;;;4.80;;
25531;SDS011;13429;48.816;9.118;2022-07-10T00:29:35;5.70;;;4.78;;
25531;SDS011;13429;48.816;9.118;2022-07-10T00:32:01;6.45;;;4.45;;
25531;SDS011;13429;48.816;9.118;2022-07-10T00:34:27;5.25;;;4.43;;
25531;SDS011;13429;48.816;9.118;2022-07-10T00:36:53;4.88;;;4.38;;
25531;SDS011;13429;48.816;9.118;2022-07-10T00:39:19;6.25;;;4.47;;
25531;SDS011;13429;48.816;9.118;2022-07-10T00:41:45;6.40;;;4.90;;
25531;SDS011;13429;48.816;9.118;2022-07-10T00:44:11;8.63;;;5.07;;
25531;SDS011;13429;48.816;9.118;2022-07-10T00:46:37;5.75;;;4.40;;
25531;SDS011;13429;48.816;9.118;2022-07-10T00:49:05;6.70;;;4.50;;
25531;SDS011;13429;48.816;9.118;2022-07-10T00:51:31;5.68;;;4.63;;
25531;SDS011;13429;48.816;9.118;2022-07-10T00:53:58;4.85;;;4.18;;
25531;SDS011;13429;48.816;9.118;2022-07-10T00:56:26;4.68;;;3.85;;
25531;SDS011;13429;48.816;9.118;2022-07-10T00:58:52;5.10;;;4.35;;
25531;SDS011;13429;48.816;9.118;2022-07-10T01:01:19;6.72;;;5.15;;
25531;SDS011;13429;48.816;9.118;2022-07-10T01:03:45;8.02;;;5.05;;
25531;SDS011;13429;48.816;9.118;2022-07-10T01:06:12;7.30;;;5.20;;
25531;SDS011;13429;48.816;9.118;2022-07-10T01:08:38;6.15;;;5.35;;
25531;SDS011;13429;48.816;9.118;2022-07-10T01:11:05;11.77;;;5.90;;
25531;SDS011;13429;48.816;9.118;2022-07-10T01:13:31;8.20;;;6.10;;
25531;SDS011;13429;48.816;9.118;2022-07-10T01:15:57;8.07;;;6.43;;
25531;SDS011;13429;48.816;9.118;2022-07-10T01:18:24;6.50;;;5.38;;
25531;SDS011;13429;48.816;9.118;2022-07-10T01:20:56;6.35;;;4.88;;
25531;SDS011;13429;48.816;9.118;2022-07-10T01:23:23;7.93;;;5.55;;
25531;SDS011;13429;48.816;9.118;2022-07-10T01:25:49;7.60;;;6.38;;
25531;SDS011;13429;48.816;9.118;2022-07-10T01:28:16;6.35;;;4.90;;
25531;SDS011;13429;48.816;9.118;2022-07-10T01:30:42;15.30;;;5.85;;
25531;SDS011;13429;48.816;9.118;2022-07-10T01:33:08;7.20;;;5.43;;
25531;SDS011;13429;48.816;9.118;2022-07-10T01:35:34;8.48;;;5.45;;
25531;SDS011;13429;48.816;9.118;2022-07-10T01:38:00;6.70;;;6.00;;
25531;SDS011;13429;48.816;9.118;2022-07-10T01:40:26;7.88;;;5.40;;
25531;SDS011;13429;48.816;9.118;2022-07-10T01:42:52;8.23;;;6.20;;
25531;SDS011;13429;48.816;9.118;2022-07-10T01:45:18;7.63;;;6.47;;
25531;SDS011;13429;48.816;9.118;2022-07-10T01:47:45;7.50;;;5.60;;
25531;SDS011;13429;48.816;9.118;2022-07-10T01:50:11;8.27;;;6.40;;
25531;SDS011;13429;48.816;9.118;2022-07-10T01:52:37;8.70;;;6.18;;
25531;SDS011;13429;48.816;9.118;2022-07-10T01:55:03;7.80;;;5.53;;
25531;SDS011;13429;48.816;9.118;2022-07-10T01:57:30;9.63;;;6.38;;
25531;SDS011;13429;48.816;9.118;2022-07-10T01:59:56;7.43;;;6.35;;
25531;SDS011;13429;48.816;9.118;2022-07-10T02:02:22;8.52;;;5.95;;
25531;SDS011;13429;48.816;9.118;2022-07-10T02:04:48;7.88;;;6.93;;
25531;SDS011;13429;48.816;9.118;2022-07-10T02:07:14;10.18;;;8.70;;
25531;SDS011;13429;48.816;9.118;2022-07-10T02:09:41;15.20;;;10.85;;
25531;SDS011;13429;48.816;9.118;2022-07-10T02:12:08;11.40;;;9.73;;
25531;SDS011;13429;48.816;9.118;2022-07-10T02:14:34;15.85;;;11.70;;
25531;SDS011;13429;48.816;9.118;2022-07-10T02:17:00;16.45;;;12.52;;
25531;SDS011;13429;48.816;9.118;2022-07-10T02:19:26;16.65;;;12.63;;
25531;SDS011;13429;48.816;9.118;2022-07-10T02:21:53;15.27;;;12.55;;
25531;SDS011;13429;48.816;9.118;2022-07-10T02:24:19;15.32;;;11.85;;
25531;SDS011;13429;48.816;9.118;2022-07-10T02:26:45;16.30;;;13.25;;
25531;SDS011;13429;48.816;9.118;2022-07-10T02:29:11;15.43;;;12.43;;
25531;SDS011;13429;48.816;9.118;2022-07-10T02:31:37;15.52;;;11.48;;
25531;SDS011;13429;48.816;9.118;2022-07-10T02:34:06;17.75;;;14.00;;
25531;SDS011;13429;48.816;9.118;2022-07-10T02:36:33;18.38;;;14.38;;
25531;SDS011;13429;48.816;9.118;2022-07-10T02:38:59;17.45;;;14.75;;
25531;SDS011;13429;48.816;9.118;2022-07-10T02:41:25;23.33;;;14.85;;
25531;SDS011;13429;48.816;9.118;2022-07-10T02:43:51;18.30;;;14.98;;
25531;SDS011;13429;48.816;9.118;2022-07-10T02:46:17;18.23;;;15.32;;
25531;SDS011;13429;48.816;9.118;2022-07-10T02:48:43;18.60;;;14.95;;
25531;SDS011;13429;48.816;9.118;2022-07-10T02:51:09;21.05;;;15.60;;
25531;SDS011;13429;48.816;9.118;2022-07-10T02:53:35;23.70;;;16.30;;
25531;SDS011;13429;48.816;9.118;2022-07-10T02:56:01;19.45;;;15.65;;
25531;SDS011;13429;48.816;9.118;2022-07-10T02:58:27;21.73;;;15.95;;
25531;SDS011;13429;48.816;9.118;2022-07-10T03:00:53;19.73;;;15.85;;
25531;SDS011;13429;48.816;9.118;2022-07-10T03:03:19;20.90;;;17.05;;
25531;SDS011;13429;48.816;9.118;2022-07-10T03:05:46;18.70;;;15.48;;
25531;SDS011;13429;48.816;9.118;2022-07-10T03:08:12;18.70;;;16.23;;
25531;SDS011;13429;48.816;9.118;2022-07-10T03:10:38;20.17;;;14.88;;
25531;SDS011;13429;48.816;9.118;2022-07-10T03:13:05;19.95;;;16.15;;
25531;SDS011;13429;48.816;9.118;2022-07-10T03:15:31;24.02;;;15.77;;
25531;SDS011;13429;48.816;9.118;2022-07-10T03:17:57;22.45;;;16.10;;
25531;SDS011;13429;48.816;9.118;2022-07-10T03:20:23;21.05;;;15.38;;
25531;SDS011;13429;48.816;9.118;2022-07-10T03:22:49;20.70;;;16.00;;
25531;SDS011;13429;48.816;9.118;2022-07-10T03:25:15;20.20;;;16.98;;
25531;SDS011;13429;48.816;9.118;2022-07-10T03:27:41;21.38;;;17.30;;
25531;SDS011;13429;48.816;9.118;2022-07-10T03:30:08;18.42;;;14.70;;
25531;SDS011;13429;48.816;9.118;2022-07-10T03:32:34;19.02;;;15.48;;
25531;SDS011;13429;48.816;9.118;2022-07-10T03:35:01;20.15;;;15.45;;
25531;SDS011;13429;48.816;9.118;2022-07-10T03:37:27;21.95;;;16.13;;
25531;SDS011;13429;48.816;9.118;2022-07-10T03:39:53;24.42;;;15.43;;
25531;SDS011;13429;48.816;9.118;2022-07-10T03:42:19;20.15;;;15.90;;
25531;SDS011;13429;48.816;9.118;2022-07-10T03:44:45;19.50;;;15.13;;
25531;SDS011;13429;48.816;9.118;2022-07-10T03:47:11;22.65;;;15.10;;
25531;SDS011;13429;48.816;9.118;2022-07-10T03:49:37;19.60;;;16.10;;
25531;SDS011;13429;48.816;9.118;2022-07-10T03:52:04;17.95;;;14.32;;
25531;SDS011;13429;48.816;9.118;2022-07-10T03:54:30;24.17;;;15.73;;
25531;SDS011;13429;48.816;9.118;2022-07-10T03:56:57;16.98;;;13.65;;
25531;SDS011;13429;48.816;9.118;2022-07-10T03:59:42;15.80;;;12.88;;
25531;SDS011;13429;48.816;9.118;2022-07-10T04:02:08;13.57;;;11.65;;
25531;SDS011;13429;48.816;9.118;2022-07-10T04:04:34;20.90;;;13.07;;
25531;SDS011;13429;48.816;9.118;2022-07-10T04:07:00;20.52;;;13.88;;
25531;SDS011;13429;48.816;9.118;2022-07-10T04:09:26;17.30;;;13.50;;
25531;SDS011;13429;48.816;9.118;2022-07-10T04:11:52;18.50;;;14.05;;
25531;SDS011;13429;48.816;9.118;2022-07-10T04:14:18;18.13;;;13.10;;
25531;SDS011;13429;48.816;9.118;2022-07-10T04:16:45;15.27;;;12.57;;
25531;SDS011;13429;48.816;9.118;2022-07-10T04:19:11;18.70;;;14.50;;
25531;SDS011;13429;48.816;9.118;2022-07-10T04:21:37;15.20;;;13.27;;
25531;SDS011;13429;48.816;9.118;2022-07-10T04:24:03;14.95;;;12.75;;
25531;SDS011;13429;48.816;9.118;2022-07-10T04:26:29;16.38;;;11.88;;
25531;SDS011;13429;48.816;9.118;2022-07-10T04:28:55;15.32;;;12.85;;
25531;SDS011;13429;48.816;9.118;2022-07-10T04:31:21;24.45;;;12.35;;
25531;SDS011;13429;48.816;9.118;2022-07-10T04:33:47;16.70;;;12.02;;
25531;SDS011;13429;48.816;9.118;2022-07-10T04:36:13;20.00;;;12.48;;
25531;SDS011;13429;48.816;9.118;2022-07-10T04:38:39;16.85;;;11.57;;
25531;SDS011;13429;48.816;9.118;2022-07-10T04:41:05;13.55;;;10.20;;
25531;SDS011;13429;48.816;9.118;2022-07-10T04:43:31;18.55;;;10.68;;
25531;SDS011;13429;48.816;9.118;2022-07-10T04:45:57;17.17;;;10.48;;
25531;SDS011;13429;48.816;9.118;2022-07-10T04:48:23;13.25;;;10.65;;
25531;SDS011;13429;48.816;9.118;2022-07-10T04:50:49;14.05;;;8.43;;
25531;SDS011;13429;48.816;9.118;2022-07-10T04:53:15;12.95;;;9.00;;
25531;SDS011;13429;48.816;9.118;2022-07-10T04:55:41;11.27;;;9.00;;
25531;SDS011;13429;48.816;9.118;2022-07-10T04:58:07;14.23;;;8.70;;
25531;SDS011;13429;48.816;9.118;2022-07-10T05:00:33;13.55;;;7.43;;
25531;SDS011;13429;48.816;9.118;2022-07-10T05:02:59;10.10;;;7.25;;
25531;SDS011;13429;48.816;9.118;2022-07-10T05:05:25;10.95;;;6.93;;
25531;SDS011;13429;48.816;9.118;2022-07-10T05:07:51;12.68;;;6.32;;
25531;SDS011;13429;48.816;9.118;2022-07-10T05:10:18;9.77;;;6.93;;
25531;SDS011;13429;48.816;9.118;2022-07-10T05:12:44;11.27;;;6.38;;
25531;SDS011;13429;48.816;9.118;2022-07-10T05:15:10;8.15;;;6.30;;
25531;SDS011;13429;48.816;9.118;2022-07-10T05:17:36;11.63;;;8.10;;
25531;SDS011;13429;48.816;9.118;2022-07-10T05:20:03;8.20;;;5.47;;
25531;SDS011;13429;48.816;9.118;2022-07-10T05:22:29;7.28;;;5.35;;
25531;SDS011;13429;48.816;9.118;2022-07-10T05:24:55;7.32;;;5.57;;
25531;SDS011;13429;48.816;9.118;2022-07-10T05:27:21;7.82;;;5.53;;
25531;SDS011;13429;48.816;9.118;2022-07-10T05:29:47;8.52;;;5.03;;
25531;SDS011;13429;48.816;9.118;2022-07-10T05:32:13;6.95;;;5.32;;
25531;SDS011;13429;48.816;9.118;2022-07-10T05:34:39;8.73;;;5.28;;
25531;SDS011;13429;48.816;9.118;2022-07-10T05:37:05;8.18;;;4.45;;
25531;SDS011;13429;48.816;9.118;2022-07-10T05:39:32;7.18;;;4.32;;
25531;SDS011;13429;48.816;9.118;2022-07-10T05:41:58;7.15;;;4.28;;
25531;SDS011;13429;48.816;9.118;2022-07-10T05:44:24;6.38;;;4.25;;
25531;SDS011;13429;48.816;9.118;2022-07-10T05:46:50;6.80;;;4.00;;
25531;SDS011;13429;48.816;9.118;2022-07-10T05:49:16;5.80;;;3.97;;
25531;SDS011;13429;48.816;9.118;2022-07-10T05:51:42;4.72;;;3.33;;
25531;SDS011;13429;48.816;9.118;2022-07-10T05:54:08;5.70;;;2.92;;
25531;SDS011;13429;48.816;9.118;2022-07-10T05:56:34;5.15;;;3.20;;
25531;SDS011;13429;48.816;9.118;2022-07-10T05:59:00;8.63;;;3.15;;
25531;SDS011;13429;48.816;9.118;2022-07-10T06:01:26;5.68;;;2.72;;
25531;SDS011;13429;48.816;9.118;2022-07-10T06:03:53;7.85;;;3.50;;
25531;SDS011;13429;48.816;9.118;2022-07-10T06:06:19;6.65;;;3.20;;
25531;SDS011;13429;48.816;9.118;2022-07-10T06:08:45;9.48;;;3.45;;
25531;SDS011;13429;48.816;9.118;2022-07-10T06:11:11;5.57;;;2.88;;
25531;SDS011;13429;48.816;9.118;2022-07-10T06:13:38;6.57;;;3.08;;
25531;SDS011;13429;48.816;9.118;2022-07-10T06:16:04;6.72;;;2.97;;
25531;SDS011;13429;48.816;9.118;2022-07-10T06:18:30;5.72;;;2.60;;
25531;SDS011;13429;48.816;9.118;2022-07-10T06:20:56;6.07;;;2.75;;
25531;SDS011;13429;48.816;9.118;2022-07-10T06:23:23;4.20;;;2.78;;
25531;SDS011;13429;48.816;9.118;2022-07-10T06:25:49;4.80;;;3.13;;
25531;SDS011;13429;48.816;9.118;2022-07-10T06:28:15;5.80;;;2.95;;
25531;SDS011;13429;48.816;9.118;2022-07-10T06:30:41;6.88;;;3.17;;
25531;SDS011;13429;48.816;9.118;2022-07-10T06:33:07;5.82;;;3.25;;
25531;SDS011;13429;48.816;9.118;2022-07-10T06:35:33;5.35;;;2.70;;
25531;SDS011;13429;48.816;9.118;2022-07-10T06:37:59;5.88;;;2.67;;
25531;SDS011;13429;48.816;9.118;2022-07-10T06:40:26;5.65;;;2.83;;
25531;SDS011;13429;48.816;9.118;2022-07-10T06:42:54;5.45;;;2.20;;
25531;SDS011;13429;48.816;9.118;2022-07-10T06:45:20;5.82;;;2.20;;
25531;SDS011;13429;48.816;9.118;2022-07-10T06:47:46;5.07;;;2.22;;
25531;SDS011;13429;48.816;9.118;2022-07-10T06:50:21;5.38;;;2.38;;
25531;SDS011;13429;48.816;9.118;2022-07-10T06:52:51;3.63;;;2.10;;
25531;SDS011;13429;48.816;9.118;2022-07-10T06:55:20;3.63;;;2.20;;
25531;SDS011;13429;48.816;9.118;2022-07-10T06:57:46;4.78;;;2.45;;
25531;SDS011;13429;48.816;9.118;2022-07-10T07:00:12;5.05;;;2.58;;
25531;SDS011;13429;48.816;9.118;2022-07-10T07:02:38;6.13;;;2.50;;
25531;SDS011;13429;48.816;9.118;2022-07-10T07:05:05;2.83;;;1.90;;
25531;SDS011;13429;48.816;9.118;2022-07-10T07:07:31;4.93;;;2.35;;
25531;SDS011;13429;48.816;9.118;2022-07-10T07:09:57;3.00;;;1.70;;
25531;SDS011;13429;48.816;9.118;2022-07-10T07:12:23;9.48;;;2.10;;
25531;SDS011;13429;48.816;9.118;2022-07-10T07:14:49;3.78;;;1.77;;
25531;SDS011;13429;48.816;9.118;2022-07-10T07:17:15;4.10;;;2.17;;
25531;SDS011;13429;48.816;9.118;2022-07-10T07:19:50;6.75;;;2.10;;
25531;SDS011;13429;48.816;9.118;2022-07-10T07:22:34;2.55;;;1.67;;
25531;SDS011;13429;48.816;9.118;2022-07-10T07:25:19;4.40;;;1.98;;
25531;SDS011;13429;48.816;9.118;2022-07-10T07:27:45;2.97;;;1.65;;
25531;SDS011;13429;48.816;9.118;2022-07-10T07:30:12;4.15;;;1.90;;
25531;SDS011;13429;48.816;9.118;2022-07-10T07:32:42;6.10;;;2.05;;
25531;SDS011;13429;48.816;9.118;2022-07-10T07:35:08;6.43;;;1.88;;
25531;SDS011;13429;48.816;9.118;2022-07-10T07:40:11;5.68;;;2.17;;
25531;SDS011;13429;48.816;9.118;2022-07-10T07:42:37;3.72;;;1.40;;
25531;SDS011;13429;48.816;9.118;2022-07-10T07:45:04;3.08;;;1.40;;
25531;SDS011;13429;48.816;9.118;2022-07-10T07:47:30;7.95;;;1.55;;
25531;SDS011;13429;48.816;9.118;2022-07-10T07:49:57;4.63;;;1.33;;
25531;SDS011;13429;48.816;9.118;2022-07-10T07:52:23;3.92;;;1.35;;
25531;SDS011;13429;48.816;9.118;2022-07-10T07:54:49;3.38;;;1.60;;
25531;SDS011;13429;48.816;9.118;2022-07-10T07:57:16;5.43;;;1.30;;
25531;SDS011;13429;48.816;9.118;2022-07-10T07:59:42;7.88;;;2.05;;
25531;SDS011;13429;48.816;9.118;2022-07-10T08:02:08;4.50;;;1.63;;
25531;SDS011;13429;48.816;9.118;2022-07-10T08:04:34;4.50;;;1.17;;
25531;SDS011;13429;48.816;9.118;2022-07-10T08:07:00;4.25;;;1.80;;
25531;SDS011;13429;48.816;9.118;2022-07-10T08:09:27;2.92;;;1.48;;
25531;SDS011;13429;48.816;9.118;2022-07-10T08:11:53;7.82;;;1.65;;
25531;SDS011;13429;48.816;9.118;2022-07-10T08:14:19;2.97;;;1.60;;
25531;SDS011;13429;48.816;9.118;2022-07-10T08:16:45;5.20;;;1.60;;
25531;SDS011;13429;48.816;9.118;2022-07-10T08:19:11;4.95;;;1.30;;
25531;SDS011;13429;48.816;9.118;2022-07-10T08:21:37;3.33;;;1.55;;
25531;SDS011;13429;48.816;9.118;2022-07-10T08:24:03;6.75;;;1.85;;
25531;SDS011;13429;48.816;9.118;2022-07-10T08:26:29;2.30;;;1.30;;
25531;SDS011;13429;48.816;9.118;2022-07-10T08:28:55;3.40;;;1.25;;
25531;SDS011;13429;48.816;9.118;2022-07-10T08:31:21;3.40;;;1.50;;
25531;SDS011;13429;48.816;9.118;2022-07-10T08:33:47;3.28;;;1.20;;
25531;SDS011;13429;48.816;9.118;2022-07-10T08:36:14;7.72;;;1.55;;
25531;SDS011;13429;48.816;9.118;2022-07-10T08:38:40;4.47;;;1.40;;
25531;SDS011;13429;48.816;9.118;2022-07-10T08:41:06;4.05;;;1.60;;
25531;SDS011;13429;48.816;9.118;2022-07-10T08:43:33;4.38;;;1.25;;
25531;SDS011;13429;48.816;9.118;2022-07-10T08:45:59;3.67;;;1.20;;
25531;SDS011;13429;48.816;9.118;2022-07-10T08:48:26;1.35;;;1.00;;
25531;SDS011;13429;48.816;9.118;2022-07-10T08:50:53;5.57;;;1.10;;
25531;SDS011;13429;48.816;9.118;2022-07-10T08:55:49;2.67;;;1.02;;
25531;SDS011;13429;48.816;9.118;2022-07-10T08:58:15;3.45;;;1.17;;
25531;SDS011;13429;48.816;9.118;2022-07-10T09:00:41;3.00;;;1.05;;
25531;SDS011;13429;48.816;9.118;2022-07-10T09:03:08;2.78;;;1.10;;
25531;SDS011;13429;48.816;9.118;2022-07-10T09:05:34;4.93;;;1.58;;
25531;SDS011;13429;48.816;9.118;2022-07-10T09:08:00;11.98;;;1.40;;
25531;SDS011;13429;48.816;9.118;2022-07-10T09:10:27;3.85;;;1.67;;
25531;SDS011;13429;48.816;9.118;2022-07-10T09:12:55;2.85;;;1.20;;
25531;SDS011;13429;48.816;9.118;2022-07-10T09:15:22;3.15;;;1.10;;
25531;SDS011;13429;48.816;9.118;2022-07-10T09:17:53;3.15;;;1.00;;
25531;SDS011;13429;48.816;9.118;2022-07-10T09:22:58;3.25;;;1.10;;
25531;SDS011;13429;48.816;9.118;2022-07-10T09:25:33;4.10;;;1.25;;
25531;SDS011;13429;48.816;9.118;2022-07-10T09:27:59;5.78;;;1.42;;
25531;SDS011;13429;48.816;9.118;2022-07-10T09:30:37;3.38;;;1.17;;
25531;SDS011;13429;48.816;9.118;2022-07-10T09:33:19;2.13;;;1.00;;
25531;SDS011;13429;48.816;9.118;2022-07-10T09:35:55;4.78;;;1.35;;
25531;SDS011;13429;48.816;9.118;2022-07-10T09:41:17;3.97;;;1.33;;
25531;SDS011;13429;48.816;9.118;2022-07-10T09:46:23;4.72;;;1.50;;
25531;SDS011;13429;48.816;9.118;2022-07-10T09:51:36;3.60;;;1.48;;
25531;SDS011;13429;48.816;9.118;2022-07-10T09:54:03;3.35;;;1.50;;
25531;SDS011;13429;48.816;9.118;2022-07-10T09:56:48;3.90;;;1.40;;
25531;SDS011;13429;48.816;9.118;2022-07-10T09:59:17;4.05;;;1.30;;
25531;SDS011;13429;48.816;9.118;2022-07-10T10:04:10;3.65;;;1.30;;
25531;SDS011;13429;48.816;9.118;2022-07-10T10:06:37;3.55;;;1.27;;
25531;SDS011;13429;48.816;9.118;2022-07-10T10:09:06;3.80;;;2.08;;
25531;SDS011;13429;48.816;9.118;2022-07-10T10:11:33;4.30;;;1.55;;
25531;SDS011;13429;48.816;9.118;2022-07-10T10:14:02;5.68;;;1.73;;
25531;SDS011;13429;48.816;9.118;2022-07-10T10:16:28;3.42;;;1.98;;
25531;SDS011;13429;48.816;9.118;2022-07-10T10:18:55;9.32;;;1.65;;
25531;SDS011;13429;48.816;9.118;2022-07-10T10:21:40;2.08;;;1.20;;
25531;SDS011;13429;48.816;9.118;2022-07-10T10:24:06;7.00;;;1.80;;
25531;SDS011;13429;48.816;9.118;2022-07-10T10:26:33;2.72;;;1.20;;
25531;SDS011;13429;48.816;9.118;2022-07-10T10:29:00;3.85;;;1.98;;
25531;SDS011;13429;48.816;9.118;2022-07-10T10:31:27;4.72;;;2.10;;
25531;SDS011;13429;48.816;9.118;2022-07-10T10:33:54;5.32;;;2.03;;
25531;SDS011;13429;48.816;9.118;2022-07-10T10:39:10;21.67;;;8.05;;
25531;SDS011;13429;48.816;9.118;2022-07-10T10:49:18;14.77;;;4.72;;
25531;SDS011;13429;48.816;9.118;2022-07-10T10:54:32;7.43;;;2.17;;
25531;SDS011;13429;48.816;9.118;2022-07-10T10:57:16;9.50;;;3.70;;
25531;SDS011;13429;48.816;9.118;2022-07-10T11:04:47;7.18;;;2.88;;
25531;SDS011;13429;48.816;9.118;2022-07-10T11:07:50;4.85;;;2.05;;
25531;SDS011;13429;48.816;9.118;2022-07-10T11:13:00;5.47;;;1.65;;
25531;SDS011;13429;48.816;9.118;2022-07-10T11:15:27;5.97;;;1.50;;
25531;SDS011;13429;48.816;9.118;2022-07-10T11:17:58;6.22;;;1.90;;
25531;SDS011;13429;48.816;9.118;2022-07-10T11:20:24;5.82;;;2.10;;
25531;SDS011;13429;48.816;9.118;2022-07-10T11:28:09;1.75;;;0.60;;
25531;SDS011;13429;48.816;9.118;2022-07-10T11:30:49;2.85;;;0.90;;
25531;SDS011;13429;48.816;9.118;2022-07-10T11:33:16;4.15;;;1.10;;
25531;SDS011;13429;48.816;9.118;2022-07-10T11:35:47;3.08;;;1.02;;
25531;SDS011;13429;48.816;9.118;2022-07-10T11:38:18;3.92;;;0.90;;
25531;SDS011;13429;48.816;9.118;2022-07-10T11:43:10;3.45;;;0.93;;
25531;SDS011;13429;48.816;9.118;2022-07-10T11:45:39;3.08;;;1.05;;
25531;SDS011;13429;48.816;9.118;2022-07-10T11:48:06;2.25;;;0.80;;
25531;SDS011;13429;48.816;9.118;2022-07-10T11:50:36;1.98;;;0.70;;
25531;SDS011;13429;48.816;9.118;2022-07-10T11:53:03;4.22;;;1.17;;
25531;SDS011;13429;48.816;9.118;2022-07-10T11:55:29;2.42;;;0.75;;
25531;SDS011;13429;48.816;9.118;2022-07-10T11:57:56;4.35;;;1.20;;
25531;SDS011;13429;48.816;9.118;2022-07-10T12:00:23;1.67;;;0.75;;
25531;SDS011;13429;48.816;9.118;2022-07-10T12:02:50;2.28;;;1.00;;
25531;SDS011;13429;48.816;9.118;2022-07-10T12:08:12;7.13;;;1.13;;
25531;SDS011;13429;48.816;9.118;2022-07-10T12:10:38;2.78;;;0.80;;
25531;SDS011;13429;48.816;9.118;2022-07-10T12:13:08;3.53;;;0.95;;
25531;SDS011;13429;48.816;9.118;2022-07-10T12:15:37;3.55;;;1.13;;
25531;SDS011;13429;48.816;9.118;2022-07-10T12:18:04;3.33;;;0.70;;
25531;SDS011;13429;48.816;9.118;2022-07-10T12:20:30;2.47;;;0.80;;
25531;SDS011;13429;48.816;9.118;2022-07-10T12:22:56;1.98;;;0.60;;
25531;SDS011;13429;48.816;9.118;2022-07-10T12:25:22;4.30;;;0.80;;
25531;SDS011;13429;48.816;9.118;2022-07-10T12:27:54;2.15;;;0.88;;
25531;SDS011;13429;48.816;9.118;2022-07-10T12:30:21;3.15;;;1.00;;
25531;SDS011;13429;48.816;9.118;2022-07-10T12:32:47;3.00;;;0.80;;
25531;SDS011;13429;48.816;9.118;2022-07-10T12:35:13;1.45;;;0.60;;
25531;SDS011;13429;48.816;9.118;2022-07-10T12:37:47;1.77;;;0.50;;
25531;SDS011;13429;48.816;9.118;2022-07-10T12:40:35;1.20;;;0.65;;
25531;SDS011;13429;48.816;9.118;2022-07-10T12:43:00;2.83;;;0.60;;
25531;SDS011;13429;48.816;9.118;2022-07-10T12:45:27;1.60;;;0.57;;
25531;SDS011;13429;48.816;9.118;2022-07-10T12:47:53;1.25;;;0.55;;
25531;SDS011;13429;48.816;9.118;2022-07-10T12:50:19;3.03;;;0.90;;
25531;SDS011;13429;48.816;9.118;2022-07-10T12:52:45;3.53;;;0.88;;
25531;SDS011;13429;48.816;9.118;2022-07-10T12:55:20;3.78;;;0.63;;
25531;SDS011;13429;48.816;9.118;2022-07-10T13:00:13;2.08;;;0.73;;
25531;SDS011;13429;48.816;9.118;2022-07-10T13:02:40;3.60;;;0.57;;
25531;SDS011;13429;48.816;9.118;2022-07-10T13:05:06;2.83;;;0.73;;
25531;SDS011;13429;48.816;9.118;2022-07-10T13:07:36;4.68;;;1.00;;
25531;SDS011;13429;48.816;9.118;2022-07-10T13:10:03;3.65;;;0.90;;
25531;SDS011;13429;48.816;9.118;2022-07-10T13:12:29;1.45;;;0.60;;
25531;SDS011;13429;48.816;9.118;2022-07-10T13:14:55;3.85;;;0.88;;
25531;SDS011;13429;48.816;9.118;2022-07-10T13:17:21;3.88;;;0.65;;
25531;SDS011;13429;48.816;9.118;2022-07-10T13:19:48;4.00;;;1.08;;
25531;SDS011;13429;48.816;9.118;2022-07-10T13:22:14;3.13;;;0.65;;
25531;SDS011;13429;48.816;9.118;2022-07-10T13:24:40;3.38;;;0.90;;
25531;SDS011;13429;48.816;9.118;2022-07-10T13:27:06;2.17;;;0.50;;
25531;SDS011;13429;48.816;9.118;2022-07-10T13:29:32;2.13;;;0.40;;
25531;SDS011;13429;48.816;9.118;2022-07-10T13:31:58;1.77;;;0.93;;
25531;SDS011;13429;48.816;9.118;2022-07-10T13:34:24;3.80;;;0.98;;
25531;SDS011;13429;48.816;9.118;2022-07-10T13:36:50;3.03;;;0.68;;
25531;SDS011;13429;48.816;9.118;2022-07-10T13:39:19;1.42;;;0.32;;
25531;SDS011;13429;48.816;9.118;2022-07-10T13:41:45;3.53;;;0.98;;
25531;SDS011;13429;48.816;9.118;2022-07-10T13:44:11;1.98;;;0.40;;
25531;SDS011;13429;48.816;9.118;2022-07-10T13:46:37;1.45;;;0.70;;
25531;SDS011;13429;48.816;9.118;2022-07-10T13:49:05;1.67;;;0.70;;
25531;SDS011;13429;48.816;9.118;2022-07-10T13:51:31;1.63;;;0.70;;
25531;SDS011;13429;48.816;9.118;2022-07-10T13:53:57;2.25;;;0.73;;
25531;SDS011;13429;48.816;9.118;2022-07-10T13:56:23;1.70;;;0.47;;
25531;SDS011;13429;48.816;9.118;2022-07-10T13:58:50;2.78;;;0.75;;
25531;SDS011;13429;48.816;9.118;2022-07-10T14:01:17;2.22;;;0.60;;
25531;SDS011;13429;48.816;9.118;2022-07-10T14:03:43;2.42;;;0.70;;
25531;SDS011;13429;48.816;9.118;2022-07-10T14:06:09;1.65;;;0.50;;
25531;SDS011;13429;48.816;9.118;2022-07-10T14:08:35;2.33;;;0.50;;
25531;SDS011;13429;48.816;9.118;2022-07-10T14:11:01;2.13;;;0.63;;
25531;SDS011;13429;48.816;9.118;2022-07-10T14:13:27;4.40;;;0.70;;
25531;SDS011;13429;48.816;9.118;2022-07-10T14:15:53;4.25;;;0.65;;
25531;SDS011;13429;48.816;9.118;2022-07-10T14:18:19;2.30;;;0.70;;
25531;SDS011;13429;48.816;9.118;2022-07-10T14:21:06;5.30;;;0.73;;
25531;SDS011;13429;48.816;9.118;2022-07-10T14:23:33;1.40;;;0.65;;
25531;SDS011;13429;48.816;9.118;2022-07-10T14:26:00;2.17;;;0.57;;
25531;SDS011;13429;48.816;9.118;2022-07-10T14:28:26;1.80;;;0.45;;
25531;SDS011;13429;48.816;9.118;2022-07-10T14:30:52;0.93;;;0.50;;
25531;SDS011;13429;48.816;9.118;2022-07-10T14:33:18;1.88;;;0.57;;
25531;SDS011;13429;48.816;9.118;2022-07-10T14:35:44;2.05;;;0.82;;
25531;SDS011;13429;48.816;9.118;2022-07-10T14:38:10;1.58;;;0.63;;
25531;SDS011;13429;48.816;9.118;2022-07-10T14:40:36;2.60;;;0.70;;
25531;SDS011;13429;48.816;9.118;2022-07-10T14:43:05;3.25;;;0.70;;
25531;SDS011;13429;48.816;9.118;2022-07-10T14:45:31;3.47;;;0.70;;
25531;SDS011;13429;48.816;9.118;2022-07-10T14:47:57;2.83;;;0.77;;
25531;SDS011;13429;48.816;9.118;2022-07-10T14:50:23;1.55;;;0.60;;
25531;SDS011;13429;48.816;9.118;2022-07-10T14:52:50;2.92;;;0.68;;
25531;SDS011;13429;48.816;9.118;2022-07-10T14:55:16;1.73;;;0.40;;
25531;SDS011;13429;48.816;9.118;2022-07-10T14:57:43;2.60;;;0.93;;
25531;SDS011;13429;48.816;9.118;2022-07-10T15:00:09;1.63;;;0.73;;
25531;SDS011;13429;48.816;9.118;2022-07-10T15:02:35;2.45;;;0.70;;
25531;SDS011;13429;48.816;9.118;2022-07-10T15:05:01;3.75;;;0.90;;
25531;SDS011;13429;48.816;9.118;2022-07-10T15:07:28;5.88;;;0.70;;
25531;SDS011;13429;48.816;9.118;2022-07-10T15:09:54;2.10;;;0.50;;
25531;SDS011;13429;48.816;9.118;2022-07-10T15:12:20;1.23;;;0.47;;
25531;SDS011;13429;48.816;9.118;2022-07-10T15:14:47;2.10;;;0.60;;
25531;SDS011;13429;48.816;9.118;2022-07-10T15:17:13;2.03;;;0.60;;
25531;SDS011;13429;48.816;9.118;2022-07-10T15:19:39;1.52;;;0.47;;
25531;SDS011;13429;48.816;9.118;2022-07-10T15:22:05;3.90;;;0.57;;
25531;SDS011;13429;48.816;9.118;2022-07-10T15:24:31;2.03;;;0.73;;
25531;SDS011;13429;48.816;9.118;2022-07-10T15:26:57;1.90;;;0.50;;
25531;SDS011;13429;48.816;9.118;2022-07-10T15:29:23;2.78;;;0.70;;
25531;SDS011;13429;48.816;9.118;2022-07-10T15:31:51;3.22;;;0.63;;
25531;SDS011;13429;48.816;9.118;2022-07-10T15:34:17;2.25;;;0.40;;